Terminal Aerodrome Forecast
Issued by NWS

Current Version | Previous Version | Text Only | Print | Product List | Glossary Off
Versions: 1 2 3 4 5 6 7 8 9 10 11 12 13 14 15 16

000
FTUS41 KRNK 290901 AAA
TAFLWB
TAF AMD
KLWB 290901Z 2909/3006 00000KT P6SM SKC
      TEMPO 2909/2912 2SM BR
     FM291200 24006KT P6SM SCT050
     FM292100 20006KT P6SM FEW080
     FM300200 00000KT P6SM FEW080=

USA.gov is the U.S. government's official web portal to all federal, state and local government web resources and services.